createdAt,value
2023-01-19T00:00:38.347Z,142999.50
2023-01-19T00:03:06.151Z,143020.00
2023-01-19T00:05:33.730Z,143001.91
2023-01-19T00:08:14.473Z,143003.13
2023-01-19T00:10:42.582Z,143000.69
2023-01-19T00:13:09.459Z,143003.13
2023-01-19T00:15:36.383Z,143006.75
2023-01-19T00:18:03.323Z,143053.72
2023-01-19T00:20:32.622Z,143036.81
2023-01-19T00:22:59.907Z,143039.25
2023-01-19T00:25:27.014Z,143044.06
2023-01-19T00:27:54.092Z,143048.88
2023-01-19T00:30:20.938Z,143087.47
2023-01-19T00:32:47.746Z,143080.22
2023-01-19T00:35:14.940Z,143070.59
2023-01-19T00:37:45.999Z,143099.50
2023-01-19T00:40:13.870Z,143076.59
2023-01-19T00:42:41.424Z,143088.66
2023-01-19T00:45:09.257Z,143140.47
2023-01-19T00:47:36.309Z,143164.59
2023-01-19T00:50:03.252Z,143146.53
2023-01-19T00:52:30.085Z,143181.44
2023-01-19T00:54:56.881Z,143150.09
2023-01-19T00:57:23.768Z,143154.91
2023-01-19T00:59:50.570Z,143147.72
2023-01-19T01:02:17.672Z,143152.53
2023-01-19T01:04:44.609Z,143165.78
2023-01-19T01:07:11.406Z,143207.97
2023-01-19T01:09:38.212Z,143171.81
2023-01-19T01:12:06.032Z,143209.16
2023-01-19T01:14:32.984Z,143220.03
2023-01-19T01:17:00.554Z,143217.63
2023-01-19T01:19:27.416Z,143229.69
2023-01-19T01:21:55.415Z,143234.50
2023-01-19T01:24:22.366Z,143268.28
2023-01-19T01:26:49.333Z,143270.69
2023-01-19T01:29:16.250Z,143259.84
2023-01-19T01:31:43.154Z,143273.09
2023-01-19T01:34:10.014Z,143282.75
2023-01-19T01:36:36.917Z,143292.41
2023-01-19T01:39:04.460Z,143315.31
2023-01-19T01:41:32.067Z,143296.03
2023-01-19T01:44:01.662Z,143309.28
2023-01-19T01:46:30.058Z,143328.56
2023-01-19T01:49:02.725Z,143314.09
2023-01-19T01:51:32.682Z,143308.03
2023-01-19T01:54:07.922Z,143311.69
2023-01-19T01:56:39.584Z,143340.59
2023-01-19T01:59:09.213Z,143334.59
2023-01-19T02:01:55.204Z,143338.22
2023-01-19T02:04:23.066Z,143359.94
2023-01-19T02:07:08.956Z,143338.22
2023-01-19T02:09:55.156Z,143351.47
2023-01-19T02:12:41.236Z,143369.59
2023-01-19T02:15:18.841Z,143364.75
2023-01-19T02:17:46.221Z,143337.03
2023-01-19T02:20:13.198Z,143345.47
2023-01-19T02:22:49.910Z,143355.13
2023-01-19T02:25:17.498Z,143387.66
2023-01-19T02:27:44.517Z,143347.84
2023-01-19T02:30:12.568Z,143378.03
2023-01-19T02:32:39.428Z,143362.31
2023-01-19T02:35:06.658Z,143403.34
2023-01-19T02:37:37.435Z,143408.16
2023-01-19T02:40:05.078Z,143409.41
2023-01-19T02:42:46.031Z,143411.78
2023-01-19T02:45:14.426Z,143385.25
2023-01-19T02:47:45.925Z,143408.16
2023-01-19T02:50:32.155Z,143411.78
2023-01-19T02:53:04.374Z,143420.25
2023-01-19T02:55:31.696Z,143417.84
2023-01-19T02:58:10.009Z,143415.41
2023-01-19T03:00:36.819Z,143435.94
2023-01-19T03:03:19.506Z,143434.72
2023-01-19T03:05:53.915Z,143408.16
2023-01-19T03:08:20.692Z,143429.88
2023-01-19T03:10:51.949Z,143402.13
2023-01-19T03:13:18.726Z,143381.66
2023-01-19T03:15:50.987Z,143400.94
2023-01-19T03:18:23.051Z,143410.59
2023-01-19T03:20:53.122Z,143412.97
2023-01-19T03:23:21.620Z,143415.41
2023-01-19T03:25:49.874Z,143398.50
2023-01-19T03:28:19.251Z,143412.97
2023-01-19T03:30:50.503Z,143441.97
2023-01-19T03:33:23.077Z,143417.84
2023-01-19T03:35:52.577Z,143415.41
2023-01-19T03:38:22.327Z,143288.78
2023-01-19T03:40:49.952Z,143420.25
2023-01-19T03:43:17.949Z,143439.53
2023-01-19T03:45:45.204Z,143422.66
2023-01-19T03:48:12.377Z,143449.19
2023-01-19T03:50:39.354Z,143421.44
2023-01-19T03:53:06.209Z,143443.16
2023-01-19T03:55:34.092Z,143420.25
2023-01-19T03:58:01.000Z,143391.31
2023-01-19T04:00:28.541Z,143386.47
2023-01-19T04:02:55.556Z,143386.47
2023-01-19T04:05:22.399Z,143410.59
2023-01-19T04:07:49.951Z,143397.31
2023-01-19T04:10:17.249Z,143417.84
2023-01-19T04:12:44.240Z,143431.06
2023-01-19T04:15:11.116Z,143425.06
2023-01-19T04:17:38.464Z,143433.50
2023-01-19T04:20:05.960Z,143427.50
2023-01-19T04:22:32.788Z,143398.50
2023-01-19T04:24:59.680Z,143419.03
2023-01-19T04:27:26.524Z,143427.50
2023-01-19T04:29:53.321Z,143425.06
2023-01-19T04:32:20.145Z,143434.72
2023-01-19T04:34:46.935Z,143402.13
2023-01-19T04:37:13.994Z,143403.34
2023-01-19T04:39:40.866Z,143425.06
2023-01-19T04:42:07.753Z,143415.41
2023-01-19T04:44:34.652Z,143398.50
2023-01-19T04:47:02.500Z,143371.97
2023-01-19T04:49:29.462Z,143371.97
2023-01-19T04:51:56.317Z,143400.94
2023-01-19T04:54:23.247Z,143421.44
2023-01-19T04:56:50.201Z,143399.75
2023-01-19T04:59:17.086Z,143427.50
2023-01-19T05:01:43.954Z,143410.59
2023-01-19T05:04:10.904Z,143427.50
2023-01-19T05:06:37.862Z,143411.78
2023-01-19T05:09:04.738Z,143427.50
2023-01-19T05:11:31.544Z,143434.72
2023-01-19T05:13:58.367Z,143427.50
2023-01-19T05:16:25.531Z,143455.25
2023-01-19T05:18:52.632Z,143414.22
2023-01-19T05:21:20.032Z,143435.94
2023-01-19T05:23:46.918Z,143451.63
2023-01-19T05:26:13.883Z,143427.50
2023-01-19T05:28:40.717Z,143429.88
2023-01-19T05:31:07.636Z,143429.88
2023-01-19T05:33:34.680Z,143449.19
2023-01-19T05:36:02.048Z,143427.50
2023-01-19T05:38:35.279Z,143425.06
2023-01-19T05:41:02.721Z,143417.84
2023-01-19T05:43:29.654Z,143449.19
2023-01-19T05:45:56.487Z,143434.72
2023-01-19T05:48:23.452Z,143420.25
2023-01-19T05:50:51.335Z,143458.88
2023-01-19T05:53:18.207Z,143439.53
2023-01-19T05:55:45.039Z,143437.13
2023-01-19T05:58:11.865Z,143470.91
2023-01-19T06:00:38.667Z,143470.91
2023-01-19T06:03:06.538Z,143463.69
2023-01-19T06:05:33.945Z,143456.44
2023-01-19T06:08:01.354Z,143422.66
2023-01-19T06:10:28.178Z,143432.31
2023-01-19T06:12:55.003Z,143441.97
2023-01-19T06:15:22.716Z,143428.69
2023-01-19T06:17:49.611Z,143461.25
2023-01-19T06:20:16.639Z,143431.06
2023-01-19T06:22:43.538Z,143441.97
2023-01-19T06:25:11.868Z,143443.16
2023-01-19T06:27:39.814Z,143411.78
2023-01-19T06:30:06.926Z,143408.16
2023-01-19T06:32:33.943Z,143458.88
2023-01-19T06:35:00.739Z,143425.06
2023-01-19T06:37:28.530Z,143446.78
2023-01-19T06:39:55.344Z,143449.19
2023-01-19T06:42:22.192Z,143468.50
2023-01-19T06:44:49.275Z,143487.81
2023-01-19T06:47:16.642Z,143475.72
2023-01-19T06:49:43.769Z,143485.38
2023-01-19T06:52:11.397Z,143426.25
2023-01-19T06:54:38.268Z,143420.25
2023-01-19T06:57:05.269Z,143412.97
2023-01-19T06:59:32.175Z,143417.84
2023-01-19T07:01:59.264Z,143439.53
2023-01-19T07:04:26.973Z,143403.34
2023-01-19T07:06:53.882Z,143403.34
2023-01-19T07:09:20.727Z,143408.16
2023-01-19T07:11:48.379Z,143412.97
2023-01-19T07:14:15.602Z,143427.50
2023-01-19T07:16:42.763Z,143419.03
2023-01-19T07:19:10.700Z,143437.13
2023-01-19T07:21:37.493Z,143422.66
2023-01-19T07:24:04.379Z,143425.06
2023-01-19T07:26:31.225Z,143434.72
2023-01-19T07:28:58.081Z,143429.88
2023-01-19T07:31:25.045Z,143440.78
2023-01-19T07:33:52.000Z,143441.97
2023-01-19T07:36:19.146Z,143463.69
2023-01-19T07:38:46.013Z,143443.16
2023-01-19T07:41:12.896Z,143426.25
2023-01-19T07:43:39.887Z,143397.31
2023-01-19T07:46:08.239Z,143446.78
2023-01-19T07:48:35.168Z,143415.41
2023-01-19T07:51:05.989Z,143441.97
2023-01-19T07:53:32.901Z,143456.44
2023-01-19T07:56:00.121Z,143421.44
2023-01-19T07:58:27.279Z,143428.69
2023-01-19T08:00:54.327Z,143412.97
2023-01-19T08:03:21.270Z,143434.72
2023-01-19T08:05:52.283Z,143478.16
2023-01-19T08:08:19.605Z,143475.72
2023-01-19T08:10:49.180Z,143466.09
2023-01-19T08:13:16.010Z,143455.25
2023-01-19T08:15:42.968Z,143449.19
2023-01-19T08:18:11.566Z,143461.25
2023-01-19T08:20:38.454Z,143417.84
2023-01-19T08:23:05.474Z,143451.63
2023-01-19T08:25:36.702Z,143446.78
2023-01-19T08:28:04.613Z,143426.25
2023-01-19T08:30:31.783Z,143449.19
2023-01-19T08:33:04.207Z,143449.19
2023-01-19T08:35:31.574Z,143415.41
2023-01-19T08:38:01.226Z,143379.22
2023-01-19T08:40:29.100Z,143364.75
2023-01-19T08:43:04.718Z,143369.59
2023-01-19T08:45:31.536Z,143371.97
2023-01-19T08:48:01.259Z,143394.88
2023-01-19T08:50:29.621Z,143403.34
2023-01-19T08:52:58.046Z,143405.78
2023-01-19T08:55:25.467Z,143432.31
2023-01-19T08:57:53.131Z,143423.88
2023-01-19T09:00:21.023Z,143439.53
2023-01-19T09:02:48.113Z,143410.59
2023-01-19T09:05:15.169Z,143420.25
2023-01-19T09:07:43.532Z,143403.34
2023-01-19T09:10:10.585Z,143427.50
2023-01-19T09:12:37.438Z,143463.69
2023-01-19T09:15:04.985Z,143487.81
2023-01-19T09:17:31.881Z,143498.66
2023-01-19T09:19:58.715Z,143487.81
2023-01-19T09:22:25.630Z,143496.25
2023-01-19T09:24:52.464Z,143526.44
2023-01-19T09:27:19.842Z,143562.66
2023-01-19T09:29:52.364Z,143589.19
2023-01-19T09:32:20.465Z,143630.22
2023-01-19T09:34:47.360Z,143645.94
2023-01-19T09:37:16.047Z,143674.91
2023-01-19T09:39:42.929Z,143693.00
2023-01-19T09:42:24.508Z,143697.84
2023-01-19T09:44:53.158Z,143685.78
2023-01-19T09:47:28.267Z,143673.69
2023-01-19T09:50:03.068Z,143688.19
2023-01-19T09:52:32.639Z,143647.13
2023-01-19T09:54:59.651Z,143629.03
2023-01-19T09:57:27.376Z,143603.69
2023-01-19T09:59:59.349Z,143656.78
2023-01-19T10:02:45.469Z,143656.78
2023-01-19T10:05:27.684Z,143627.81
2023-01-19T10:08:03.604Z,143665.25
2023-01-19T10:10:31.964Z,143603.69
2023-01-19T10:13:19.205Z,143637.47
2023-01-19T10:16:04.761Z,143579.53
2023-01-19T10:18:45.855Z,143574.69
2023-01-19T10:21:18.722Z,143572.31
2023-01-19T10:23:54.602Z,143603.69
2023-01-19T10:26:24.385Z,143579.53
2023-01-19T10:28:54.199Z,143613.34
2023-01-19T10:31:23.104Z,143598.88
2023-01-19T10:33:52.452Z,143642.31
2023-01-19T10:36:38.179Z,143653.19
2023-01-19T10:39:05.898Z,143644.75
2023-01-19T10:41:35.603Z,143637.47
2023-01-19T10:44:04.345Z,143650.75
2023-01-19T10:46:45.435Z,143665.25
2023-01-19T10:49:27.452Z,143656.78
2023-01-19T10:51:55.270Z,143673.69
2023-01-19T10:54:22.767Z,143687.00
2023-01-19T10:56:57.022Z,143647.13
2023-01-19T10:59:30.039Z,143638.66
2023-01-19T11:02:15.592Z,143676.13
2023-01-19T11:04:44.898Z,143630.22
2023-01-19T11:07:33.030Z,143658.03
2023-01-19T11:10:15.114Z,143654.41
2023-01-19T11:12:55.541Z,143690.63
2023-01-19T11:15:23.950Z,143712.38
2023-01-19T11:17:51.920Z,143678.53
2023-01-19T11:20:23.459Z,143705.09
2023-01-19T11:23:04.525Z,143726.84
2023-01-19T11:25:32.700Z,143688.19
2023-01-19T11:28:00.515Z,143722.03
2023-01-19T11:30:27.589Z,143741.34
2023-01-19T11:32:56.166Z,143598.88
2023-01-19T11:35:36.949Z,143741.34
2023-01-19T11:38:12.790Z,143700.28
2023-01-19T11:40:40.891Z,143691.81
2023-01-19T11:43:11.202Z,143709.94
2023-01-19T11:45:39.580Z,143678.53
2023-01-19T11:48:07.295Z,143671.31
2023-01-19T11:50:53.862Z,143684.56
2023-01-19T11:53:25.408Z,143725.66
2023-01-19T11:55:54.846Z,143746.16
2023-01-19T11:58:21.842Z,143800.50
2023-01-19T12:00:58.197Z,143571.06
2023-01-19T12:03:34.381Z,143758.25
2023-01-19T12:06:04.797Z,143736.50
2023-01-19T12:08:36.153Z,143772.75
2023-01-19T12:11:04.684Z,143765.47
2023-01-19T12:13:32.263Z,143724.41
2023-01-19T12:16:07.577Z,143722.03
2023-01-19T12:18:38.389Z,143741.34
2023-01-19T12:21:05.367Z,143720.78
2023-01-19T12:23:41.082Z,143695.44
2023-01-19T12:26:24.607Z,143725.66
2023-01-19T12:28:52.767Z,143806.53
2023-01-19T12:31:21.518Z,143923.75
2023-01-19T12:33:49.095Z,143979.38
2023-01-19T12:36:35.451Z,143980.56
2023-01-19T12:39:12.208Z,143889.94
2023-01-19T12:41:40.156Z,143908.06
2023-01-19T12:44:09.795Z,143953.97
2023-01-19T12:46:36.607Z,143895.97
2023-01-19T12:49:27.160Z,143821.06
2023-01-19T12:52:11.398Z,143879.03
2023-01-19T12:54:40.480Z,143835.56
2023-01-19T12:57:23.088Z,143784.84
2023-01-19T12:59:57.199Z,143770.31
2023-01-19T13:02:24.057Z,143709.94
2023-01-19T13:05:09.580Z,143707.53
2023-01-19T13:07:55.271Z,143753.44
2023-01-19T13:10:40.874Z,143750.97
2023-01-19T13:13:18.097Z,143720.78
2023-01-19T13:15:45.080Z,143736.50
2023-01-19T13:18:23.460Z,143736.50
2023-01-19T13:20:52.990Z,143767.91
2023-01-19T13:23:24.369Z,143720.78
2023-01-19T13:25:53.328Z,143724.41
2023-01-19T13:28:23.744Z,143712.38
2023-01-19T13:30:55.554Z,143695.44
2023-01-19T13:33:24.067Z,143683.34
2023-01-19T13:35:55.598Z,143684.56
2023-01-19T13:38:23.736Z,143707.53
2023-01-19T13:40:50.975Z,143697.84
2023-01-19T13:43:19.448Z,143673.69
2023-01-19T13:45:50.676Z,143666.44
2023-01-19T13:48:22.130Z,143664.03
2023-01-19T13:50:59.192Z,143688.19
2023-01-19T13:53:26.101Z,143699.06
2023-01-19T13:56:09.068Z,143711.13
2023-01-19T13:58:35.986Z,143709.94
2023-01-19T14:01:02.838Z,143714.75
2023-01-19T14:03:29.830Z,143701.47
2023-01-19T14:05:56.767Z,143711.13
2023-01-19T14:08:25.505Z,143694.25
2023-01-19T14:10:56.199Z,143673.69
2023-01-19T14:13:29.471Z,143647.13
2023-01-19T14:15:58.065Z,143626.63
2023-01-19T14:18:25.432Z,143630.22
2023-01-19T14:21:03.235Z,143623.00
2023-01-19T14:23:42.047Z,143627.81
2023-01-19T14:26:27.989Z,143632.66
2023-01-19T14:28:54.853Z,143504.72
2023-01-19T14:31:27.386Z,143626.63
2023-01-19T14:33:55.553Z,143623.00
2023-01-19T14:36:33.220Z,143618.19
2023-01-19T14:39:01.109Z,143632.66
2023-01-19T14:41:36.797Z,143635.09
2023-01-19T14:44:08.296Z,143629.03
2023-01-19T14:46:35.231Z,143621.81
2023-01-19T14:49:03.173Z,143606.09
2023-01-19T14:51:31.266Z,143602.47
2023-01-19T14:53:59.972Z,143600.06
2023-01-19T14:56:28.333Z,143591.63
2023-01-19T14:58:55.748Z,143594.00
2023-01-19T15:01:23.457Z,143600.06
2023-01-19T15:03:50.599Z,143618.19
2023-01-19T15:06:18.756Z,143619.38
2023-01-19T15:08:46.150Z,143627.81
2023-01-19T15:11:22.783Z,143635.09
2023-01-19T15:13:49.893Z,143631.47
2023-01-19T15:16:16.768Z,143656.78
2023-01-19T15:18:43.639Z,143671.31
2023-01-19T15:21:19.943Z,143651.97
2023-01-19T15:23:47.527Z,143630.22
2023-01-19T15:26:18.781Z,143625.41
2023-01-19T15:28:45.982Z,143630.22
2023-01-19T15:31:17.081Z,143627.81
2023-01-19T15:33:44.198Z,143627.81
2023-01-19T15:36:17.720Z,143619.38
2023-01-19T15:38:45.065Z,143612.09
2023-01-19T15:41:25.710Z,143603.69
2023-01-19T15:43:53.036Z,143614.53
2023-01-19T15:46:20.766Z,143606.09
2023-01-19T15:48:48.082Z,143623.00
2023-01-19T15:51:16.391Z,143610.91
2023-01-19T15:53:43.526Z,143613.34
2023-01-19T15:56:14.062Z,143601.25
2023-01-19T15:58:40.998Z,143585.59
2023-01-19T16:01:11.784Z,143591.63
2023-01-19T16:03:38.668Z,143589.19
2023-01-19T16:06:05.611Z,143586.78
2023-01-19T16:08:32.675Z,143590.41
2023-01-19T16:11:03.480Z,143573.50
2023-01-19T16:13:30.984Z,143561.41
2023-01-19T16:16:01.400Z,143560.22
2023-01-19T16:18:28.308Z,143554.19
2023-01-19T16:20:55.146Z,143567.47
2023-01-19T16:23:21.987Z,143577.13
2023-01-19T16:25:56.113Z,143575.91
2023-01-19T16:28:23.235Z,143574.69
2023-01-19T16:30:50.120Z,143572.31
2023-01-19T16:33:17.328Z,143574.69
2023-01-19T16:35:44.172Z,143575.91
2023-01-19T16:38:11.100Z,143579.53
2023-01-19T16:40:38.208Z,143584.34
2023-01-19T16:43:05.089Z,143577.13
2023-01-19T16:45:32.006Z,143586.78
2023-01-19T16:47:58.894Z,143601.25
2023-01-19T16:50:25.801Z,143589.19
2023-01-19T16:52:55.921Z,143586.78
2023-01-19T16:55:22.836Z,143581.97
2023-01-19T16:57:49.699Z,143574.69
2023-01-19T17:00:16.790Z,143601.25
2023-01-19T17:02:43.791Z,143612.09
2023-01-19T17:05:10.848Z,143603.69
2023-01-19T17:07:38.044Z,143630.22
2023-01-19T17:10:05.425Z,143626.63
2023-01-19T17:12:32.471Z,143608.53
2023-01-19T17:14:59.426Z,143597.63
2023-01-19T17:17:26.353Z,143591.63
2023-01-19T17:19:53.275Z,143590.41
2023-01-19T17:22:20.101Z,143584.34
2023-01-19T17:24:47.008Z,143572.31
2023-01-19T17:27:13.841Z,143562.66
2023-01-19T17:29:59.467Z,143577.13
2023-01-19T17:32:26.359Z,143565.06
2023-01-19T17:34:53.293Z,143565.06
2023-01-19T17:37:24.241Z,143579.53
2023-01-19T17:39:51.216Z,143598.88
2023-01-19T17:42:18.084Z,143569.88
2023-01-19T17:44:45.157Z,143559.03
2023-01-19T17:47:12.034Z,143567.47
2023-01-19T17:49:38.889Z,143555.41
2023-01-19T17:52:05.822Z,143540.94
2023-01-19T17:54:32.729Z,143550.56
2023-01-19T17:56:59.863Z,143526.44
2023-01-19T17:59:26.724Z,143552.97
2023-01-19T18:01:54.541Z,143538.50
2023-01-19T18:04:21.494Z,143532.47
2023-01-19T18:06:49.864Z,143519.19
2023-01-19T18:09:16.768Z,143504.72
2023-01-19T18:11:43.795Z,143503.47
2023-01-19T18:14:10.674Z,143486.63
2023-01-19T18:16:37.589Z,143481.78
2023-01-19T18:19:04.473Z,143480.56
2023-01-19T18:21:31.303Z,143486.63
2023-01-19T18:24:02.198Z,143484.19
2023-01-19T18:26:29.747Z,143497.47
2023-01-19T18:28:57.178Z,143503.47
2023-01-19T18:31:24.038Z,143497.47
2023-01-19T18:33:50.954Z,143485.38
2023-01-19T18:36:18.147Z,143492.63
2023-01-19T18:38:45.092Z,143501.09
2023-01-19T18:41:13.575Z,143508.34
2023-01-19T18:43:40.649Z,143515.56
2023-01-19T18:46:07.790Z,143514.38
2023-01-19T18:48:35.027Z,143527.66
2023-01-19T18:51:06.131Z,143521.56
2023-01-19T18:53:33.025Z,143519.19
2023-01-19T18:56:01.896Z,143525.22
2023-01-19T18:58:29.367Z,143515.56
2023-01-19T19:00:56.742Z,143505.91
2023-01-19T19:03:23.714Z,143487.81
2023-01-19T19:05:50.633Z,143499.91
2023-01-19T19:08:17.851Z,143504.72
2023-01-19T19:10:45.085Z,143508.34
2023-01-19T19:13:12.613Z,143503.47
2023-01-19T19:15:39.543Z,143507.09
2023-01-19T19:18:08.798Z,143515.56
2023-01-19T19:20:38.486Z,143528.84
2023-01-19T19:23:05.383Z,143516.75
2023-01-19T19:25:32.921Z,143514.38
2023-01-19T19:27:59.799Z,143514.38
2023-01-19T19:30:26.735Z,143511.94
2023-01-19T19:32:56.760Z,143511.94
2023-01-19T19:35:23.835Z,143511.94
2023-01-19T19:37:51.533Z,143499.91
2023-01-19T19:40:18.489Z,143505.91
2023-01-19T19:42:45.428Z,143502.28
2023-01-19T19:45:12.527Z,143507.09
2023-01-19T19:47:39.385Z,143511.94
2023-01-19T19:50:06.426Z,143527.66
2023-01-19T19:52:37.387Z,143538.50
2023-01-19T19:55:04.445Z,143538.50
2023-01-19T19:57:31.255Z,143543.31
2023-01-19T19:59:58.074Z,143555.41
2023-01-19T20:02:24.890Z,143577.13
2023-01-19T20:04:51.767Z,143557.78
2023-01-19T20:07:19.568Z,143552.97
2023-01-19T20:09:46.390Z,143544.56
2023-01-19T20:12:13.201Z,143540.94
2023-01-19T20:14:40.046Z,143532.47
2023-01-19T20:17:06.856Z,143520.38
2023-01-19T20:19:33.686Z,143528.84
2023-01-19T20:22:00.513Z,143509.53
2023-01-19T20:24:27.362Z,143503.47
2023-01-19T20:26:56.177Z,143498.66
2023-01-19T20:29:23.094Z,143492.63
2023-01-19T20:31:51.913Z,143485.38
2023-01-19T20:34:19.939Z,143470.91
2023-01-19T20:36:49.618Z,143462.44
2023-01-19T20:39:17.615Z,143462.44
2023-01-19T20:41:45.470Z,143456.44
2023-01-19T20:44:13.739Z,143449.19
2023-01-19T20:46:40.575Z,143441.97
2023-01-19T20:49:07.473Z,143444.34
2023-01-19T20:51:35.518Z,143449.19
2023-01-19T20:54:02.355Z,143460.06
2023-01-19T20:56:29.180Z,143463.69
2023-01-19T20:58:56.000Z,143462.44
2023-01-19T21:01:26.337Z,143458.88
2023-01-19T21:03:53.605Z,143449.19
2023-01-19T21:06:21.048Z,143432.31
2023-01-19T21:08:49.960Z,143409.41
2023-01-19T21:11:19.605Z,143380.41
2023-01-19T21:13:47.261Z,143369.59
2023-01-19T21:16:14.873Z,143364.75
2023-01-19T21:18:41.713Z,143350.28
2023-01-19T21:21:14.958Z,143339.41
2023-01-19T21:23:47.995Z,143340.59
2023-01-19T21:26:14.875Z,143345.47
2023-01-19T21:28:41.951Z,143367.16
2023-01-19T21:31:12.646Z,143375.59
2023-01-19T21:33:40.300Z,143368.38
2023-01-19T21:36:07.428Z,143374.41
2023-01-19T21:38:35.604Z,143379.22
2023-01-19T21:41:07.476Z,143376.78
2023-01-19T21:43:35.989Z,143387.66
2023-01-19T21:46:10.230Z,143399.75
2023-01-19T21:48:37.140Z,143406.97
2023-01-19T21:51:04.081Z,143408.16
2023-01-19T21:53:30.898Z,143405.78
2023-01-19T21:55:58.762Z,143409.41
2023-01-19T21:58:30.534Z,143388.88
2023-01-19T22:01:02.286Z,143391.31
2023-01-19T22:03:29.392Z,143391.31
2023-01-19T22:06:04.594Z,143388.88
2023-01-19T22:08:31.417Z,143400.94
2023-01-19T22:11:04.952Z,143398.50
2023-01-19T22:13:32.463Z,143393.69
2023-01-19T22:16:03.510Z,143393.69
2023-01-19T22:18:30.625Z,143391.31
2023-01-19T22:21:06.499Z,143394.88
2023-01-19T22:23:33.425Z,143386.47
2023-01-19T22:26:00.231Z,143375.59
2023-01-19T22:28:27.103Z,143373.22
2023-01-19T22:30:54.058Z,143378.03
2023-01-19T22:33:20.976Z,143369.59
2023-01-19T22:35:47.778Z,143352.69
2023-01-19T22:38:15.061Z,143338.22
2023-01-19T22:40:41.931Z,143343.03
2023-01-19T22:43:08.802Z,143344.22
2023-01-19T22:45:39.909Z,143357.50
2023-01-19T22:48:06.906Z,143368.38
2023-01-19T22:50:35.043Z,143380.41
2023-01-19T22:53:01.856Z,143362.31
2023-01-19T22:55:29.501Z,143364.75
2023-01-19T22:57:56.343Z,143363.56
2023-01-19T23:00:23.243Z,143367.16
2023-01-19T23:02:50.054Z,143350.28
2023-01-19T23:05:17.254Z,143333.41
2023-01-19T23:07:44.245Z,143334.59
2023-01-19T23:10:11.265Z,143328.56
2023-01-19T23:12:38.139Z,143321.31
2023-01-19T23:15:05.329Z,143320.13
2023-01-19T23:17:32.130Z,143330.97
2023-01-19T23:19:58.956Z,143345.47
2023-01-19T23:22:25.751Z,143350.28
2023-01-19T23:24:52.596Z,143364.75
2023-01-19T23:27:19.414Z,143385.25
2023-01-19T23:29:46.239Z,143429.88
2023-01-19T23:32:13.176Z,143412.97
2023-01-19T23:34:40.012Z,143380.41
2023-01-19T23:37:06.836Z,143379.22
2023-01-19T23:39:33.646Z,143369.59
2023-01-19T23:42:00.475Z,143369.59
2023-01-19T23:44:27.299Z,143374.41
2023-01-19T23:46:54.106Z,143374.41
2023-01-19T23:49:21.186Z,143367.16
2023-01-19T23:51:48.055Z,143364.75
2023-01-19T23:54:14.888Z,143369.59
2023-01-19T23:56:42.786Z,143373.22
2023-01-19T23:59:11.120Z,143371.97
